Time;durP1;ratioP1;P1;durP2;ratioP2;P2;SDS_P1;SDS_P2;PMS_P1;PMS_P2;Temp;Humidity;BMP_temperature;BMP_pressure;BME280_temperature;BME280_humidity;BME280_pressure;Samples;Min_cycle;Max_cycle;Signal;HPM_P1;HPM_P2
2021/11/13 00:01:14;;;;;;;72.93;50.17;;;3.60;99.90;;;;;;5071000;28;20448;-74
2021/11/13 00:03:41;;;;;;;76.90;53.30;;;3.60;99.90;;;;;;5070868;28;20496;-74
2021/11/13 00:06:08;;;;;;;62.93;50.07;;;3.60;99.90;;;;;;5070924;28;20443;-74
2021/11/13 00:08:35;;;;;;;85.13;55.57;;;3.60;99.90;;;;;;5070960;28;20454;-74
2021/11/13 00:11:04;;;;;;;80.10;55.50;;;3.60;99.90;;;;;;5071023;28;20460;-75
2021/11/13 00:13:30;;;;;;;79.30;54.97;;;3.60;99.90;;;;;;5070779;28;20447;-74
2021/11/13 00:15:58;;;;;;;67.77;52.20;;;3.70;99.90;;;;;;5070897;28;20473;-74
2021/11/13 00:18:24;;;;;;;72.27;49.90;;;3.70;99.90;;;;;;5070949;28;20447;-74
2021/11/13 00:20:51;;;;;;;66.80;49.83;;;3.80;99.90;;;;;;5070849;28;20458;-75
2021/11/13 00:23:19;;;;;;;65.37;51.30;;;4.00;99.90;;;;;;5070653;28;20505;-75
2021/11/13 00:25:46;;;;;;;68.60;52.27;;;4.00;99.90;;;;;;5070703;28;20447;-75
2021/11/13 00:28:14;;;;;;;73.17;52.20;;;4.00;99.90;;;;;;5070748;28;20447;-76
2021/11/13 00:30:41;;;;;;;66.60;50.53;;;4.10;99.90;;;;;;5070704;28;20828;-76
2021/11/13 00:33:09;;;;;;;66.40;51.73;;;4.10;99.90;;;;;;5070743;28;20976;-73
2021/11/13 00:35:36;;;;;;;74.63;48.97;;;4.20;99.90;;;;;;5070840;28;20496;-76
2021/11/13 00:38:03;;;;;;;70.40;48.60;;;4.20;99.90;;;;;;5070573;28;20447;-76
2021/11/13 00:40:30;;;;;;;61.37;49.33;;;4.30;99.90;;;;;;5070593;28;20450;-76
2021/11/13 00:42:57;;;;;;;70.27;50.60;;;4.30;99.90;;;;;;5070538;28;20450;-75
2021/11/13 00:45:25;;;;;;;63.03;48.13;;;4.30;99.90;;;;;;5073482;28;20494;-75
2021/11/13 00:47:52;;;;;;;61.10;50.30;;;4.10;99.90;;;;;;5074511;28;20470;-75
2021/11/13 00:50:18;;;;;;;65.77;47.20;;;4.20;99.90;;;;;;5074605;28;20448;-75
2021/11/13 00:52:45;;;;;;;68.27;48.63;;;4.20;99.90;;;;;;5074434;28;20453;-75
2021/11/13 00:55:15;;;;;;;56.77;47.27;;;4.10;99.90;;;;;;5074489;28;20451;-75
2021/11/13 00:57:42;;;;;;;56.53;47.00;;;4.10;99.90;;;;;;5074413;28;20447;-76
2021/11/13 01:00:11;;;;;;;52.33;46.77;;;4.10;99.90;;;;;;5074427;28;20444;-75
2021/11/13 01:02:39;;;;;;;54.50;43.97;;;4.00;99.90;;;;;;5074443;28;20486;-76
2021/11/13 01:05:07;;;;;;;49.80;44.70;;;4.10;99.90;;;;;;5074471;28;20478;-76
2021/11/13 01:07:34;;;;;;;46.30;41.70;;;4.10;99.90;;;;;;5074275;28;20453;-76
2021/11/13 01:10:00;;;;;;;45.37;40.67;;;4.20;99.90;;;;;;5074238;28;20446;-76
2021/11/13 01:12:28;;;;;;;44.80;40.23;;;4.30;99.90;;;;;;5074025;28;20474;-75
2021/11/13 01:14:54;;;;;;;57.33;45.00;;;4.30;99.90;;;;;;5074120;28;20450;-76
2021/11/13 01:17:21;;;;;;;52.03;45.73;;;4.30;99.90;;;;;;5074203;28;20451;-76
2021/11/13 01:19:50;;;;;;;50.70;44.43;;;4.30;99.90;;;;;;5074351;28;20457;-75
2021/11/13 01:22:17;;;;;;;49.93;44.53;;;4.40;99.90;;;;;;5073944;28;20471;-76
2021/11/13 01:24:47;;;;;;;51.37;45.90;;;4.30;99.90;;;;;;5073872;28;20479;-76
2021/11/13 01:27:14;;;;;;;49.07;43.67;;;4.40;99.90;;;;;;5073924;28;20823;-76
2021/11/13 01:29:41;;;;;;;56.67;45.47;;;4.40;99.90;;;;;;5074035;28;20448;-75
2021/11/13 01:32:08;;;;;;;53.30;47.53;;;4.60;99.90;;;;;;5073694;28;20976;-75
2021/11/13 01:34:35;;;;;;;50.10;44.60;;;4.60;99.90;;;;;;5073909;28;20444;-76
2021/11/13 01:37:03;;;;;;;50.00;44.17;;;4.70;99.90;;;;;;5073742;28;20455;-76
2021/11/13 01:39:30;;;;;;;48.40;43.33;;;4.70;99.90;;;;;;5073715;28;20945;-76
2021/11/13 01:41:59;;;;;;;46.80;41.80;;;4.70;99.90;;;;;;5073609;28;20452;-76
2021/11/13 01:44:26;;;;;;;48.77;43.67;;;4.60;99.90;;;;;;5073509;28;20518;-76
2021/11/13 01:46:53;;;;;;;47.03;42.03;;;4.60;99.90;;;;;;5073570;28;20455;-76
2021/11/13 01:49:20;;;;;;;50.93;42.53;;;4.50;99.90;;;;;;5073511;28;20447;-76
2021/11/13 01:51:49;;;;;;;49.83;44.37;;;4.60;99.90;;;;;;5073493;28;20459;-76
2021/11/13 01:54:19;;;;;;;51.10;44.83;;;4.60;99.90;;;;;;5073445;28;20443;-76
2021/11/13 01:56:49;;;;;;;50.03;43.47;;;4.60;99.90;;;;;;5072893;28;20451;-76
2021/11/13 01:59:18;;;;;;;50.90;43.67;;;4.60;99.90;;;;;;5073448;28;20453;-74
2021/11/13 02:01:45;;;;;;;60.40;46.07;;;4.70;99.90;;;;;;5073232;28;20454;-73
2021/11/13 02:04:12;;;;;;;57.37;45.10;;;4.60;99.90;;;;;;5073329;28;20877;-76
2021/11/13 02:06:39;;;;;;;56.20;46.47;;;4.50;99.90;;;;;;5072961;28;20921;-76
2021/11/13 02:09:06;;;;;;;53.30;45.83;;;4.60;99.90;;;;;;5072605;28;20474;-76
2021/11/13 02:11:34;;;;;;;55.17;45.90;;;4.70;99.90;;;;;;5072676;28;20450;-76
2021/11/13 02:14:02;;;;;;;51.30;44.17;;;4.80;99.90;;;;;;5072595;28;20474;-77
2021/11/13 02:16:29;;;;;;;56.20;43.77;;;4.80;99.90;;;;;;5072709;28;20460;-76
2021/11/13 02:18:56;;;;;;;51.43;45.23;;;4.80;99.90;;;;;;5072487;28;20473;-76
2021/11/13 02:21:26;;;;;;;64.47;47.53;;;4.70;99.90;;;;;;5070733;28;20447;-76
2021/11/13 02:23:53;;;;;;;55.83;44.00;;;4.50;99.90;;;;;;5072132;28;20475;-76
2021/11/13 02:26:22;;;;;;;55.87;42.97;;;4.70;99.90;;;;;;5072316;28;20701;-76
2021/11/13 02:28:50;;;;;;;52.83;42.50;;;4.70;99.90;;;;;;5072375;28;21130;-75
2021/11/13 02:31:17;;;;;;;53.30;44.07;;;4.60;99.90;;;;;;5072099;28;20469;-76
2021/11/13 02:33:44;;;;;;;48.67;43.20;;;4.60;99.90;;;;;;5072214;28;20491;-76
2021/11/13 02:36:12;;;;;;;49.80;43.00;;;4.40;99.90;;;;;;5072112;28;20455;-76
2021/11/13 02:38:43;;;;;;;51.07;42.10;;;4.60;99.90;;;;;;5072183;28;20448;-76
2021/11/13 02:41:12;;;;;;;52.90;41.23;;;4.60;99.90;;;;;;5072143;28;20974;-75
2021/11/13 02:43:40;;;;;;;50.40;41.90;;;4.70;99.90;;;;;;5071913;28;20462;-75
2021/11/13 02:46:10;;;;;;;52.53;42.90;;;4.70;99.90;;;;;;5071923;28;20491;-76
2021/11/13 02:48:39;;;;;;;48.27;42.97;;;4.80;99.90;;;;;;5072061;28;20483;-75
2021/11/13 02:51:07;;;;;;;56.00;43.20;;;4.70;99.90;;;;;;5071783;28;20447;-76
2021/11/13 02:53:33;;;;;;;48.77;43.60;;;4.70;99.90;;;;;;5071767;28;20447;-75
2021/11/13 02:56:05;;;;;;;51.73;41.80;;;4.70;99.90;;;;;;5071748;28;20443;-75
2021/11/13 02:58:33;;;;;;;50.13;40.83;;;4.70;99.90;;;;;;5071699;28;20822;-75
2021/11/13 03:01:04;;;;;;;48.10;41.23;;;4.70;99.90;;;;;;5071696;28;20917;-75
2021/11/13 03:03:31;;;;;;;52.47;43.07;;;4.80;99.90;;;;;;5071495;28;20452;-75
2021/11/13 03:06:00;;;;;;;52.50;43.73;;;4.70;99.90;;;;;;5071480;28;20560;-76
2021/11/13 03:08:28;;;;;;;52.40;43.83;;;4.80;99.90;;;;;;5070787;28;20447;-75
2021/11/13 03:10:57;;;;;;;68.67;45.10;;;4.70;99.90;;;;;;5071499;28;20462;-74
2021/11/13 03:13:25;;;;;;;58.33;43.47;;;4.60;99.90;;;;;;5071455;28;20458;-74
2021/11/13 03:15:53;;;;;;;58.63;43.73;;;4.50;99.90;;;;;;5071490;28;20450;-74
2021/11/13 03:18:20;;;;;;;58.83;44.20;;;4.60;99.90;;;;;;5071406;28;20459;-74
2021/11/13 03:20:47;;;;;;;61.40;44.40;;;4.40;99.90;;;;;;5071244;28;20976;-74
2021/11/13 03:23:15;;;;;;;55.27;46.27;;;4.30;99.90;;;;;;5071252;28;20515;-73
2021/11/13 03:25:47;;;;;;;72.93;45.23;;;4.20;99.90;;;;;;5071137;28;20490;-74
2021/11/13 03:28:17;;;;;;;66.40;45.30;;;4.00;99.90;;;;;;5071384;28;20450;-74
2021/11/13 03:30:46;;;;;;;60.07;43.80;;;3.90;99.90;;;;;;5071247;28;20471;-74
2021/11/13 03:33:13;;;;;;;77.83;44.83;;;4.00;99.90;;;;;;5071065;28;20447;-73
2021/11/13 03:35:40;;;;;;;66.37;46.73;;;3.90;99.90;;;;;;5070969;28;20451;-73
2021/11/13 03:38:09;;;;;;;61.37;47.90;;;3.90;99.90;;;;;;5070954;28;20462;-73
2021/11/13 03:40:38;;;;;;;66.60;47.40;;;3.90;99.90;;;;;;5070897;28;20808;-73
2021/11/13 03:43:06;;;;;;;63.83;45.23;;;3.90;99.90;;;;;;5070968;28;20458;-73
2021/11/13 03:45:33;;;;;;;61.10;46.50;;;3.80;99.90;;;;;;5070698;28;20487;-73
2021/11/13 03:48:01;;;;;;;66.33;46.70;;;3.80;99.90;;;;;;5070911;28;20895;-77
2021/11/13 03:50:28;;;;;;;54.83;42.70;;;3.80;99.90;;;;;;5070708;28;20451;-76
2021/11/13 03:52:55;;;;;;;53.27;42.77;;;3.80;99.90;;;;;;5070847;28;20450;-74
2021/11/13 03:55:23;;;;;;;61.00;44.80;;;3.60;99.90;;;;;;5070458;28;20455;-75
2021/11/13 03:57:51;;;;;;;52.60;44.50;;;3.70;99.90;;;;;;5070571;28;20447;-76
2021/11/13 04:00:20;;;;;;;55.00;44.20;;;3.60;99.90;;;;;;5070667;28;20451;-75
2021/11/13 04:02:47;;;;;;;62.13;46.70;;;3.50;99.90;;;;;;5070579;28;20858;-75
2021/11/13 04:05:16;;;;;;;74.50;50.93;;;3.60;99.90;;;;;;5070401;28;20511;-75
2021/11/13 04:07:44;;;;;;;59.70;44.27;;;3.50;99.90;;;;;;5070406;28;20457;-75
2021/11/13 04:10:13;;;;;;;59.17;45.40;;;3.50;99.90;;;;;;5070412;28;20456;-76
2021/11/13 04:12:41;;;;;;;56.27;43.83;;;3.50;99.90;;;;;;5070411;28;20449;-75
2021/11/13 04:15:09;;;;;;;58.07;43.80;;;3.40;99.90;;;;;;5070635;28;20444;-75
2021/11/13 04:17:36;;;;;;;60.50;44.00;;;3.30;99.90;;;;;;5070361;28;20454;-75
2021/11/13 04:20:03;;;;;;;64.27;45.90;;;3.40;99.90;;;;;;5070387;28;20818;-76
2021/11/13 04:22:31;;;;;;;56.50;44.40;;;3.40;99.90;;;;;;5070133;28;20843;-76
2021/11/13 04:24:58;;;;;;;60.47;46.07;;;3.40;99.90;;;;;;5070116;28;20494;-76
2021/11/13 04:27:25;;;;;;;56.50;43.87;;;3.40;99.90;;;;;;5070207;28;20456;-76
2021/11/13 04:29:51;;;;;;;56.13;42.97;;;3.30;99.90;;;;;;5070131;28;20461;-76
2021/11/13 04:32:18;;;;;;;59.43;44.17;;;3.30;99.90;;;;;;5070345;28;20447;-75
2021/11/13 04:34:49;;;;;;;49.47;41.30;;;3.30;99.90;;;;;;5070279;28;20454;-75
2021/11/13 04:37:18;;;;;;;46.50;41.57;;;3.30;99.90;;;;;;5070308;28;20525;-76
2021/11/13 04:39:48;;;;;;;49.43;41.60;;;3.20;99.90;;;;;;5070217;28;20553;-74
2021/11/13 04:42:15;;;;;;;52.10;43.17;;;3.20;99.90;;;;;;5070264;28;20447;-75
2021/11/13 04:44:42;;;;;;;47.17;42.10;;;3.20;99.90;;;;;;5070075;28;20447;-75
2021/11/13 04:47:09;;;;;;;37.97;33.07;;;3.20;99.90;;;;;;5070275;28;20984;-76
2021/11/13 04:49:36;;;;;;;39.33;35.07;;;3.10;99.90;;;;;;5070102;28;20450;-75
2021/11/13 04:52:05;;;;;;;48.77;38.33;;;3.00;99.90;;;;;;5070056;28;20840;-75
2021/11/13 04:54:32;;;;;;;40.60;35.00;;;3.00;99.90;;;;;;5069963;28;20452;-75
2021/11/13 04:57:00;;;;;;;44.53;39.77;;;3.00;99.90;;;;;;5069913;28;20444;-76
2021/11/13 04:59:27;;;;;;;37.90;34.30;;;3.10;99.90;;;;;;5070269;28;20832;-76
2021/11/13 05:01:54;;;;;;;42.17;37.87;;;3.00;99.90;;;;;;5070011;28;20454;-76
2021/11/13 05:04:21;;;;;;;44.93;40.20;;;3.10;99.90;;;;;;5070046;28;20452;-75
2021/11/13 05:06:47;;;;;;;40.77;36.47;;;3.20;99.90;;;;;;5069820;28;20483;-75
2021/11/13 05:09:14;;;;;;;39.70;35.93;;;3.10;99.90;;;;;;5069948;28;20453;-76
2021/11/13 05:11:41;;;;;;;45.10;40.57;;;3.10;99.90;;;;;;5069703;28;20447;-76
2021/11/13 05:17:31;;;;;;;40.37;35.90;;;3.20;99.90;;;;;;5070010;28;20412;-75
2021/11/13 05:19:59;;;;;;;39.87;35.83;;;3.10;99.90;;;;;;5069915;28;20962;-75
2021/11/13 05:22:25;;;;;;;36.93;32.27;;;3.10;99.90;;;;;;5069700;28;20485;-75
2021/11/13 05:24:52;;;;;;;38.13;33.40;;;3.00;99.90;;;;;;5069780;28;20598;-75
2021/11/13 05:27:19;;;;;;;37.10;33.40;;;3.00;99.90;;;;;;5069692;28;20921;-75
2021/11/13 05:29:45;;;;;;;39.27;35.67;;;3.00;99.90;;;;;;5069684;28;20553;-75
2021/11/13 05:32:12;;;;;;;38.97;35.03;;;3.10;99.90;;;;;;5073491;28;20451;-75
2021/11/13 05:34:40;;;;;;;36.93;33.23;;;3.10;99.90;;;;;;5073381;28;20458;-75
2021/11/13 05:37:07;;;;;;;35.97;32.50;;;3.10;99.90;;;;;;5073305;28;20458;-75
2021/11/13 05:39:36;;;;;;;37.10;33.37;;;3.10;99.90;;;;;;5073217;28;20513;-76
2021/11/13 05:42:03;;;;;;;37.00;33.43;;;3.10;99.90;;;;;;5073018;28;20478;-76
2021/11/13 05:44:29;;;;;;;36.50;33.03;;;3.20;99.90;;;;;;5073144;28;20448;-76
2021/11/13 05:46:56;;;;;;;40.30;36.27;;;3.20;99.90;;;;;;5072965;28;20490;-76
2021/11/13 05:49:23;;;;;;;36.70;33.00;;;3.20;99.90;;;;;;5073137;28;20455;-76
2021/11/13 05:51:52;;;;;;;37.07;33.57;;;3.20;99.90;;;;;;5073039;28;20458;-75
2021/11/13 05:54:19;;;;;;;33.63;30.80;;;3.20;99.90;;;;;;5072859;28;20957;-76
2021/11/13 05:56:46;;;;;;;36.47;33.07;;;3.20;99.90;;;;;;5072871;28;20468;-76
2021/11/13 05:59:13;;;;;;;34.13;31.00;;;3.20;99.90;;;;;;5072981;28;20461;-76
2021/11/13 06:01:39;;;;;;;29.37;26.90;;;3.20;99.90;;;;;;5073140;28;20866;-76
2021/11/13 06:04:06;;;;;;;34.23;31.00;;;3.20;99.90;;;;;;5072973;28;20450;-77
2021/11/13 06:06:33;;;;;;;25.07;23.07;;;3.10;99.90;;;;;;5072843;28;20487;-76
2021/11/13 06:09:01;;;;;;;32.27;29.40;;;3.10;99.90;;;;;;5072588;28;20452;-76
2021/11/13 06:11:27;;;;;;;29.40;26.80;;;3.10;99.90;;;;;;5072743;28;20939;-76
2021/11/13 06:13:54;;;;;;;31.23;28.47;;;3.10;99.90;;;;;;5072658;28;20455;-76
2021/11/13 06:16:21;;;;;;;29.63;26.97;;;3.10;99.90;;;;;;5072600;28;20445;-75
2021/11/13 06:18:47;;;;;;;34.20;31.20;;;3.10;99.90;;;;;;5072530;28;20546;-76
2021/11/13 06:21:14;;;;;;;27.00;24.80;;;3.10;99.90;;;;;;5072493;28;20448;-76
2021/11/13 06:23:45;;;;;;;31.07;28.47;;;3.20;99.90;;;;;;5072269;28;20504;-75
2021/11/13 06:26:14;;;;;;;27.77;25.30;;;3.20;99.90;;;;;;5072163;28;20526;-75
2021/11/13 06:28:41;;;;;;;30.43;27.80;;;3.30;99.90;;;;;;5072336;28;20451;-75
2021/11/13 06:31:08;;;;;;;30.00;27.60;;;3.40;99.90;;;;;;5071968;28;20477;-75
2021/11/13 06:33:36;;;;;;;27.83;25.57;;;3.40;99.90;;;;;;5072096;28;20445;-75
2021/11/13 06:36:03;;;;;;;27.90;25.03;;;3.50;99.90;;;;;;5072223;28;20610;-76
2021/11/13 06:38:30;;;;;;;25.43;23.33;;;3.50;99.90;;;;;;5072196;28;20453;-75
2021/11/13 06:40:56;;;;;;;30.03;27.23;;;3.60;99.90;;;;;;5072085;28;20449;-75
2021/11/13 06:43:24;;;;;;;28.10;25.60;;;3.60;99.90;;;;;;5072046;28;20459;-75
2021/11/13 06:45:51;;;;;;;26.57;24.30;;;3.60;99.90;;;;;;5071956;28;20484;-74
2021/11/13 06:48:20;;;;;;;25.27;23.07;;;3.60;99.90;;;;;;5071969;28;20451;-75
2021/11/13 06:50:47;;;;;;;23.33;21.60;;;3.60;99.90;;;;;;5071836;28;20458;-75
2021/11/13 06:53:14;;;;;;;21.97;20.47;;;3.60;99.90;;;;;;5071861;28;20508;-76
2021/11/13 06:55:41;;;;;;;24.37;22.60;;;3.60;99.90;;;;;;5071776;28;20793;-75
2021/11/13 06:58:08;;;;;;;28.20;25.73;;;3.50;99.90;;;;;;5071798;28;20549;-75
2021/11/13 07:00:36;;;;;;;25.50;23.40;;;3.60;99.90;;;;;;5071798;28;20461;-74
2021/11/13 07:03:03;;;;;;;26.97;24.80;;;3.50;99.90;;;;;;5071663;28;20456;-75
2021/11/13 07:05:31;;;;;;;25.50;23.50;;;3.50;99.90;;;;;;5071218;28;20473;-75
2021/11/13 07:07:58;;;;;;;27.67;25.37;;;3.50;99.90;;;;;;5071525;28;20824;-75
2021/11/13 07:10:25;;;;;;;23.37;21.60;;;3.50;99.90;;;;;;5071397;28;20477;-75
2021/11/13 07:12:52;;;;;;;27.50;25.10;;;3.50;99.90;;;;;;5071411;28;20458;-75
2021/11/13 07:15:19;;;;;;;27.93;25.73;;;3.50;99.90;;;;;;5071452;28;20456;-75
2021/11/13 07:17:47;;;;;;;27.90;25.80;;;3.50;99.90;;;;;;5071201;28;20454;-75
2021/11/13 07:20:15;;;;;;;25.17;23.13;;;3.50;99.90;;;;;;5071259;28;20454;-76
2021/11/13 07:22:45;;;;;;;25.00;23.23;;;3.50;99.90;;;;;;5070950;28;20490;-76
2021/11/13 07:25:14;;;;;;;26.87;24.83;;;3.50;99.90;;;;;;5071388;28;20827;-75
2021/11/13 07:27:42;;;;;;;26.20;24.17;;;3.40;99.90;;;;;;5071011;28;20483;-75
2021/11/13 07:30:12;;;;;;;29.10;26.80;;;3.40;99.90;;;;;;5070943;28;20474;-76
2021/11/13 07:32:39;;;;;;;28.93;26.40;;;3.40;99.90;;;;;;5071042;28;20552;-75
2021/11/13 07:35:08;;;;;;;28.10;25.87;;;3.50;99.90;;;;;;5070953;28;20453;-76
2021/11/13 07:37:34;;;;;;;29.60;27.00;;;3.50;99.90;;;;;;5070977;28;20811;-75
2021/11/13 07:40:01;;;;;;;30.70;28.30;;;3.60;99.90;;;;;;5070853;28;20458;-75
2021/11/13 07:42:28;;;;;;;34.07;30.97;;;3.70;99.90;;;;;;5070899;28;20554;-75
2021/11/13 07:44:55;;;;;;;31.03;28.37;;;3.80;99.90;;;;;;5070979;28;20824;-75
2021/11/13 07:47:21;;;;;;;31.83;29.03;;;3.80;99.90;;;;;;5070780;28;20474;-75
2021/11/13 07:49:48;;;;;;;30.00;27.40;;;3.90;99.90;;;;;;5070969;28;20558;-75
2021/11/13 07:52:16;;;;;;;27.60;25.30;;;4.00;99.90;;;;;;5070731;28;20507;-75
2021/11/13 07:54:43;;;;;;;30.87;28.37;;;4.00;99.90;;;;;;5070423;28;20506;-75
2021/11/13 07:57:09;;;;;;;27.83;25.43;;;4.10;99.90;;;;;;5070822;28;20445;-75
2021/11/13 07:59:36;;;;;;;29.23;26.93;;;4.10;99.90;;;;;;5070760;28;20462;-74
2021/11/13 08:02:03;;;;;;;28.67;26.37;;;4.10;99.90;;;;;;5070635;28;20969;-75
2021/11/13 08:04:30;;;;;;;33.00;30.20;;;4.20;99.90;;;;;;5070597;28;20450;-75
2021/11/13 08:06:57;;;;;;;28.30;25.80;;;4.30;99.90;;;;;;5070524;28;20475;-75
2021/11/13 08:09:25;;;;;;;30.97;28.30;;;4.30;99.90;;;;;;5070529;28;20836;-75
2021/11/13 08:11:51;;;;;;;28.23;26.03;;;4.40;99.90;;;;;;5070441;28;20450;-75
2021/11/13 08:14:18;;;;;;;30.17;27.67;;;4.50;99.90;;;;;;5070488;28;20987;-75
2021/11/13 08:16:45;;;;;;;27.77;25.53;;;4.50;99.90;;;;;;5070557;28;21112;-75
2021/11/13 08:19:14;;;;;;;28.53;26.17;;;4.60;99.90;;;;;;5070771;28;20447;-76
2021/11/13 08:21:40;;;;;;;25.97;23.97;;;4.80;99.90;;;;;;5070687;28;20554;-75
2021/11/13 08:24:07;;;;;;;26.13;24.03;;;5.00;99.90;;;;;;5070532;28;20526;-75
2021/11/13 08:26:35;;;;;;;27.03;24.90;;;5.10;99.90;;;;;;5070645;28;21017;-75
2021/11/13 08:29:02;;;;;;;26.90;24.60;;;5.20;99.90;;;;;;5070641;28;20453;-74
2021/11/13 08:31:29;;;;;;;24.40;22.30;;;5.40;99.90;;;;;;5070365;28;20468;-75
2021/11/13 08:33:55;;;;;;;27.03;24.73;;;5.70;99.90;;;;;;5070201;28;20546;-74
2021/11/13 08:36:22;;;;;;;22.80;21.07;;;6.00;99.90;;;;;;5070292;28;20833;-75
2021/11/13 08:38:49;;;;;;;24.93;22.83;;;6.20;99.90;;;;;;5070494;28;20458;-74
2021/11/13 08:41:15;;;;;;;24.30;22.30;;;6.40;99.90;;;;;;5070060;28;20961;-74
2021/11/13 08:43:43;;;;;;;27.10;25.00;;;6.50;99.90;;;;;;5070487;28;20870;-74
2021/11/13 08:46:10;;;;;;;25.60;23.30;;;6.50;99.90;;;;;;5070348;28;20568;-74
2021/11/13 08:48:37;;;;;;;26.17;24.23;;;6.20;99.90;;;;;;5070229;28;20449;-75
2021/11/13 08:51:04;;;;;;;26.13;23.97;;;6.00;99.90;;;;;;5070229;28;20460;-74
2021/11/13 08:53:31;;;;;;;26.70;24.30;;;6.00;99.90;;;;;;5069985;28;20467;-75
2021/11/13 08:55:58;;;;;;;25.33;23.43;;;5.90;99.90;;;;;;5070016;28;20452;-74
2021/11/13 08:58:24;;;;;;;26.23;24.23;;;5.90;99.90;;;;;;5070522;28;20448;-74
2021/11/13 09:00:55;;;;;;;26.87;24.97;;;5.70;99.90;;;;;;5070236;28;20457;-74
2021/11/13 09:03:25;;;;;;;28.30;26.00;;;5.70;99.90;;;;;;5069928;28;20461;-74
2021/11/13 09:05:52;;;;;;;25.17;23.03;;;5.60;99.90;;;;;;5071800;28;21108;-74
2021/11/13 09:08:18;;;;;;;25.27;23.37;;;5.50;99.90;;;;;;5073789;28;20483;-75
2021/11/13 09:10:47;;;;;;;26.90;24.60;;;5.50;99.90;;;;;;5073960;28;20443;-74
2021/11/13 09:13:14;;;;;;;24.93;22.80;;;5.40;99.90;;;;;;5073889;28;20513;-74
2021/11/13 09:15:41;;;;;;;27.33;25.03;;;5.40;99.90;;;;;;5073490;28;20447;-74
2021/11/13 09:18:10;;;;;;;27.97;25.67;;;5.40;99.90;;;;;;5073853;28;20439;-74
2021/11/13 09:20:39;;;;;;;27.30;24.90;;;5.40;99.90;;;;;;5073586;28;20458;-74
2021/11/13 09:23:07;;;;;;;26.13;23.80;;;5.40;99.90;;;;;;5073313;28;20482;-75
2021/11/13 09:25:33;;;;;;;26.57;24.37;;;5.50;99.90;;;;;;5073478;28;20452;-74
2021/11/13 09:28:01;;;;;;;24.83;22.87;;;5.60;99.90;;;;;;5073478;28;20488;-75
2021/11/13 09:30:32;;;;;;;25.47;23.43;;;5.70;99.90;;;;;;5073440;28;20833;-74
2021/11/13 09:32:59;;;;;;;24.57;22.60;;;5.70;99.90;;;;;;5073395;28;20484;-74
2021/11/13 09:35:27;;;;;;;24.17;21.90;;;5.80;99.90;;;;;;5073410;28;20458;-74
2021/11/13 09:37:55;;;;;;;25.40;23.50;;;5.80;99.90;;;;;;5073148;28;20499;-74
2021/11/13 09:40:24;;;;;;;27.77;25.90;;;5.90;99.90;;;;;;5073184;28;20453;-76
2021/11/13 09:42:55;;;;;;;28.87;26.27;;;5.90;99.90;;;;;;5073369;28;20460;-75
2021/11/13 09:45:22;;;;;;;25.53;23.50;;;6.10;99.90;;;;;;5073189;28;20451;-74
2021/11/13 09:47:51;;;;;;;26.17;24.17;;;6.30;99.90;;;;;;5072944;28;20510;-74
2021/11/13 09:50:21;;;;;;;24.77;22.80;;;6.40;99.90;;;;;;5073103;28;20462;-76
2021/11/13 09:52:50;;;;;;;23.70;21.90;;;6.80;99.90;;;;;;5073081;28;20463;-76
2021/11/13 09:55:19;;;;;;;27.23;24.93;;;6.90;99.90;;;;;;5073142;28;20454;-76
2021/11/13 09:57:46;;;;;;;26.97;24.77;;;6.90;99.90;;;;;;5072810;28;20486;-76
2021/11/13 10:00:15;;;;;;;25.30;23.07;;;7.10;99.90;;;;;;5072881;28;20442;-76
2021/11/13 10:02:43;;;;;;;23.80;21.87;;;7.40;99.90;;;;;;5072996;28;20459;-76
2021/11/13 10:05:11;;;;;;;24.43;22.73;;;7.90;99.90;;;;;;5072862;28;20462;-76
2021/11/13 10:07:38;;;;;;;25.80;23.90;;;8.30;99.90;;;;;;5072632;28;20483;-76
2021/11/13 10:10:10;;;;;;;24.67;22.80;;;8.30;99.90;;;;;;5072632;28;20451;-75
2021/11/13 10:12:38;;;;;;;26.60;24.50;;;8.30;99.90;;;;;;5072771;28;20462;-74
2021/11/13 10:15:25;;;;;;;28.50;26.57;;;8.00;99.90;;;;;;5072569;28;20449;-72
2021/11/13 10:18:06;;;;;;;43.73;40.63;;;7.60;99.90;;;;;;5072334;28;20492;-73
2021/11/13 10:20:33;;;;;;;48.43;44.43;;;7.20;99.90;;;;;;5072713;28;20451;-72
2021/11/13 10:23:00;;;;;;;47.63;44.30;;;6.90;99.90;;;;;;5072611;28;20513;-73
2021/11/13 10:25:28;;;;;;;50.37;46.37;;;6.80;99.90;;;;;;5072764;28;20462;-73
2021/11/13 10:28:14;;;;;;;50.03;46.27;;;6.90;99.90;;;;;;5072679;28;20567;-73
2021/11/13 10:30:42;;;;;;;47.63;44.20;;;6.90;99.90;;;;;;5072646;28;20877;-73
2021/11/13 10:33:09;;;;;;;48.17;44.50;;;6.90;99.90;;;;;;5072592;28;20457;-74
2021/11/13 10:35:44;;;;;;;51.43;47.50;;;6.90;99.90;;;;;;5072507;28;20458;-74
2021/11/13 10:38:13;;;;;;;50.03;46.20;;;7.00;99.90;;;;;;5072567;28;20475;-74
2021/11/13 10:40:52;;;;;;;49.60;46.00;;;7.10;99.90;;;;;;5072288;28;20482;-74
2021/11/13 10:43:19;;;;;;;45.27;42.20;;;7.20;99.90;;;;;;5072398;28;20453;-73
2021/11/13 10:45:58;;;;;;;44.87;41.77;;;7.20;99.90;;;;;;5072374;28;20447;-73
2021/11/13 10:48:25;;;;;;;45.20;41.87;;;7.20;99.90;;;;;;5072152;28;20520;-72
2021/11/13 10:50:52;;;;;;;40.90;37.87;;;7.20;99.90;;;;;;5072291;28;20952;-72
2021/11/13 10:53:26;;;;;;;39.63;36.93;;;7.30;99.90;;;;;;5072097;28;20822;-72
2021/11/13 10:56:09;;;;;;;38.50;35.60;;;7.30;99.90;;;;;;5071933;28;20458;-73
2021/11/13 10:58:38;;;;;;;40.13;37.17;;;7.40;99.90;;;;;;5071892;28;20940;-72
2021/11/13 11:01:08;;;;;;;39.20;36.10;;;7.60;99.90;;;;;;5071925;28;20843;-72
2021/11/13 11:03:38;;;;;;;37.77;35.03;;;7.60;99.90;;;;;;5071929;28;20447;-72
2021/11/13 11:06:06;;;;;;;35.30;32.73;;;7.60;99.90;;;;;;5071824;28;20447;-73
2021/11/13 11:08:34;;;;;;;35.43;32.87;;;7.70;99.90;;;;;;5071710;28;20512;-73
2021/11/13 11:11:04;;;;;;;35.57;32.87;;;7.90;99.90;;;;;;5071815;28;20488;-73
2021/11/13 11:13:48;;;;;;;34.67;31.77;;;7.90;99.90;;;;;;5071680;28;20443;-72
2021/11/13 11:16:36;;;;;;;36.27;33.47;;;8.00;99.90;;;;;;5071591;28;20451;-73
2021/11/13 11:19:06;;;;;;;33.47;30.93;;;8.10;99.90;;;;;;5067235;28;20464;-73
2021/11/13 11:21:47;;;;;;;33.63;31.10;;;8.10;99.90;;;;;;5071481;28;20747;-74
2021/11/13 11:24:17;;;;;;;33.27;30.87;;;8.00;99.90;;;;;;5071137;28;20502;-74
2021/11/13 11:26:47;;;;;;;33.40;31.03;;;8.10;99.90;;;;;;5071584;28;20439;-75
2021/11/13 11:29:14;;;;;;;32.87;30.47;;;8.10;99.90;;;;;;5070571;28;20442;-75
2021/11/13 11:31:47;;;;;;;35.83;33.33;;;8.20;99.90;;;;;;5071041;28;20474;-75
2021/11/13 11:34:25;;;;;;;35.73;32.60;;;8.30;99.90;;;;;;5071356;28;20455;-75
2021/11/13 11:36:53;;;;;;;31.90;29.50;;;8.20;99.90;;;;;;5071335;28;20455;-75
2021/11/13 11:39:20;;;;;;;33.57;30.97;;;8.30;99.90;;;;;;5070924;28;20489;-75
2021/11/13 11:41:48;;;;;;;33.03;30.53;;;8.20;99.90;;;;;;5070818;28;20435;-74
2021/11/13 11:44:18;;;;;;;33.23;30.53;;;8.20;99.90;;;;;;5071139;28;20451;-75
2021/11/13 11:46:46;;;;;;;31.37;29.07;;;8.20;99.90;;;;;;5070765;28;20505;-74
2021/11/13 11:49:14;;;;;;;31.23;28.83;;;8.30;99.90;;;;;;5070873;28;20489;-75
2021/11/13 11:51:41;;;;;;;32.57;29.90;;;8.20;99.90;;;;;;5070931;28;20458;-75
2021/11/13 11:54:08;;;;;;;32.60;30.20;;;8.20;99.90;;;;;;5070885;28;20454;-75
2021/11/13 11:56:37;;;;;;;36.00;33.17;;;8.20;99.90;;;;;;5070824;28;20447;-75
2021/11/13 11:59:06;;;;;;;34.13;31.53;;;8.20;99.90;;;;;;5070833;28;20527;-74
2021/11/13 12:01:34;;;;;;;32.10;29.77;;;8.20;99.90;;;;;;5070863;28;20455;-74
2021/11/13 12:04:19;;;;;;;32.60;29.83;;;8.20;99.90;;;;;;5070869;28;20454;-74
2021/11/13 12:06:53;;;;;;;30.70;28.40;;;8.20;99.90;;;;;;5070873;28;20451;-73
2021/11/13 12:09:21;;;;;;;30.27;27.90;;;8.30;99.90;;;;;;5070822;28;20487;-74
2021/11/13 12:11:49;;;;;;;31.00;28.67;;;8.40;99.90;;;;;;5070952;28;20519;-74
2021/11/13 12:14:33;;;;;;;30.03;27.97;;;8.40;99.90;;;;;;5070860;28;20451;-74
2021/11/13 12:17:35;;;;;;;31.60;29.20;;;8.40;99.90;;;;;;5070854;28;20451;-76
2021/11/13 12:20:19;;;;;;;30.13;28.00;;;8.40;99.90;;;;;;5071030;28;20482;-73
2021/11/13 12:22:49;;;;;;;30.57;28.17;;;8.30;99.90;;;;;;5071064;28;20486;-75
2021/11/13 12:25:18;;;;;;;33.07;30.47;;;8.30;99.90;;;;;;5068554;28;20458;-75
2021/11/13 12:28:09;;;;;;;32.90;30.23;;;8.30;99.90;;;;;;5070663;28;20487;-74
2021/11/13 12:31:08;;;;;;;30.23;28.07;;;8.30;99.90;;;;;;5070738;28;20887;-75
2021/11/13 12:33:45;;;;;;;29.77;27.70;;;8.50;99.90;;;;;;5070021;28;20547;-75
2021/11/13 12:36:16;;;;;;;30.87;28.53;;;8.50;99.90;;;;;;5070757;28;20869;-75
2021/11/13 12:38:44;;;;;;;30.87;28.67;;;8.50;99.90;;;;;;5070647;28;20447;-74
2021/11/13 12:41:13;;;;;;;29.87;27.47;;;8.50;99.90;;;;;;5074926;28;20450;-74
2021/11/13 12:44:03;;;;;;;30.20;27.50;;;8.50;99.90;;;;;;5074246;28;20443;-74
2021/11/13 12:46:34;;;;;;;30.70;27.90;;;8.50;99.90;;;;;;5074353;28;20454;-75